AFL1040 UUEE-URSS
Flight info
| Callsign | AFL1040 |
|---|---|
| Flight time | N/A |
| Altitude | 35000 |
| Route | TOGMO3H TOGMO M56 ABAGI B105 NIMTA/K0830F360 B105 NATIT/K0828F350 DCT MOLED N50 SUBED/K0841F370 N50 LIDUS G242 ZG DCT ITAKA/K0846F360 DCT OBBUD DCT AMKOL DCT GOTIK DCT MEMZA DCT VENFO DCT BINOL BINOL1K |
| Aircraft | B738/M-SDE2E3FGHIRWXY/LB1 |
Departure
| Time | 2026-05-06 11:09 |
|---|---|
| Airport | Sheremetyevo International Airport (UUEE) |
Arrival
| Time | N/A |
|---|---|
| Airport | Sochi International Airport (URSS) |
| Time | Latitude | Longitude | Altitude | Speed | Heading |
|---|---|---|---|---|---|
| 2026-05-06 10:37 | 55.97960 | 37.41610 | 638 ft | 0 kts | 76° |
| 2026-05-06 11:01 | 55.97958 | 37.41599 | 641 ft | 2 kts | 76° |
| 2026-05-06 11:01 | 55.97954 | 37.41571 | 638 ft | 2 kts | 76° |
| 2026-05-06 11:02 | 55.97950 | 37.41543 | 639 ft | 2 kts | 76° |
| 2026-05-06 11:02 | 55.97946 | 37.41515 | 644 ft | 2 kts | 76° |
| 2026-05-06 11:02 | 55.97942 | 37.41487 | 640 ft | 2 kts | 84° |
| 2026-05-06 11:02 | 55.97944 | 37.41459 | 639 ft | 2 kts | 137° |
| 2026-05-06 11:03 | 55.97959 | 37.41447 | 642 ft | 2 kts | 165° |
| 2026-05-06 11:03 | 55.97962 | 37.41446 | 640 ft | 0 kts | 165° |
| 2026-05-06 11:05 | 55.97951 | 37.41451 | 642 ft | 7 kts | 165° |
| 2026-05-06 11:05 | 55.97882 | 37.41484 | 638 ft | 13 kts | 165° |
| 2026-05-06 11:05 | 55.97795 | 37.41525 | 642 ft | 13 kts | 165° |
| 2026-05-06 11:06 | 55.97711 | 37.41566 | 638 ft | 12 kts | 165° |
| 2026-05-06 11:06 | 55.97629 | 37.41609 | 640 ft | 12 kts | 150° |
| 2026-05-06 11:06 | 55.97619 | 37.41745 | 645 ft | 12 kts | 75° |
| 2026-05-06 11:06 | 55.97646 | 37.41928 | 641 ft | 19 kts | 75° |
| 2026-05-06 11:07 | 55.97681 | 37.42159 | 639 ft | 19 kts | 75° |
| 2026-05-06 11:07 | 55.97714 | 37.42383 | 640 ft | 18 kts | 75° |
| 2026-05-06 11:07 | 55.97747 | 37.42598 | 638 ft | 18 kts | 75° |
| 2026-05-06 11:07 | 55.97753 | 37.42769 | 638 ft | 13 kts | 129° |
| 2026-05-06 11:08 | 55.97671 | 37.42825 | 637 ft | 13 kts | 164° |
| 2026-05-06 11:08 | 55.97597 | 37.42795 | 643 ft | 12 kts | 240° |
| 2026-05-06 11:08 | 55.97575 | 37.42641 | 639 ft | 16 kts | 255° |
| 2026-05-06 11:08 | 55.97502 | 37.42152 | 646 ft | 75 kts | 255° |
| 2026-05-06 11:09 | 55.97310 | 37.40863 | 640 ft | 137 kts | 255° |
| 2026-05-06 11:09 | 55.97025 | 37.38930 | 813 ft | 173 kts | 255° |
| 2026-05-06 11:09 | 55.96717 | 37.36984 | 1756 ft | 158 kts | 257° |
| 2026-05-06 11:09 | 55.96422 | 37.35099 | 2561 ft | 159 kts | 256° |
| 2026-05-06 11:10 | 55.96120 | 37.33160 | 3085 ft | 165 kts | 256° |
| 2026-05-06 11:10 | 55.95804 | 37.31136 | 3433 ft | 183 kts | 256° |
| 2026-05-06 11:10 | 55.95438 | 37.28821 | 3622 ft | 203 kts | 256° |
| 2026-05-06 11:10 | 55.95038 | 37.26283 | 3791 ft | 221 kts | 256° |
| 2026-05-06 11:11 | 55.94605 | 37.23522 | 3957 ft | 242 kts | 255° |
| 2026-05-06 11:11 | 55.94138 | 37.20573 | 4516 ft | 251 kts | 255° |
| 2026-05-06 11:11 | 55.93663 | 37.17570 | 5251 ft | 249 kts | 256° |
| 2026-05-06 11:11 | 55.93194 | 37.14610 | 6059 ft | 246 kts | 256° |
| 2026-05-06 11:12 | 55.92730 | 37.11685 | 6797 ft | 245 kts | 256° |
| 2026-05-06 11:12 | 55.92260 | 37.08728 | 7420 ft | 250 kts | 256° |
| 2026-05-06 11:12 | 55.91789 | 37.05744 | 8156 ft | 249 kts | 257° |
| 2026-05-06 11:12 | 55.91725 | 37.02670 | 8845 ft | 252 kts | 281° |
| 2026-05-06 11:13 | 55.92391 | 36.99753 | 9556 ft | 259 kts | 297° |
| 2026-05-06 11:13 | 55.93624 | 36.97323 | 10204 ft | 272 kts | 316° |
| 2026-05-06 11:13 | 55.95180 | 36.95370 | 10888 ft | 275 kts | 319° |
| 2026-05-06 11:13 | 55.96767 | 36.93437 | 11541 ft | 279 kts | 320° |
| 2026-05-06 11:14 | 55.98584 | 36.92009 | 12158 ft | 297 kts | 344° |
| 2026-05-06 11:14 | 56.00690 | 36.92168 | 12862 ft | 314 kts | 10° |
| 2026-05-06 11:14 | 56.02689 | 36.93881 | 13591 ft | 325 kts | 28° |
| 2026-05-06 11:14 | 56.04582 | 36.96144 | 14240 ft | 329 kts | 29° |
| 2026-05-06 11:15 | 56.06480 | 36.98443 | 14888 ft | 331 kts | 29° |
| 2026-05-06 11:15 | 56.08408 | 37.00740 | 15533 ft | 335 kts | 28° |
| 2026-05-06 11:15 | 56.10350 | 37.03065 | 16209 ft | 339 kts | 33° |
| 2026-05-06 11:15 | 56.11931 | 37.06243 | 16851 ft | 349 kts | 59° |
| 2026-05-06 11:16 | 56.12776 | 37.10352 | 17555 ft | 353 kts | 75° |
| 2026-05-06 11:16 | 56.13353 | 37.14648 | 18200 ft | 357 kts | 76° |
| 2026-05-06 11:16 | 56.13935 | 37.19013 | 18730 ft | 361 kts | 75° |
| 2026-05-06 11:16 | 56.14539 | 37.23400 | 19286 ft | 364 kts | 75° |
| 2026-05-06 11:17 | 56.14835 | 37.27914 | 19792 ft | 369 kts | 97° |
| 2026-05-06 11:17 | 56.14152 | 37.32321 | 20320 ft | 367 kts | 120° |
| 2026-05-06 11:17 | 56.12652 | 37.35948 | 20887 ft | 361 kts | 141° |
| 2026-05-06 11:17 | 56.10614 | 37.38478 | 21416 ft | 356 kts | 158° |
| 2026-05-06 11:18 | 56.08356 | 37.40395 | 21893 ft | 361 kts | 160° |
| 2026-05-06 11:18 | 56.06020 | 37.42269 | 21995 ft | 377 kts | 160° |
| 2026-05-06 11:18 | 56.03574 | 37.44241 | 22109 ft | 392 kts | 160° |
| 2026-05-06 11:18 | 56.01052 | 37.46323 | 22212 ft | 407 kts | 159° |
| 2026-05-06 11:19 | 55.98446 | 37.48502 | 22326 ft | 421 kts | 158° |
| 2026-05-06 11:19 | 55.95923 | 37.51352 | 22484 ft | 440 kts | 140° |
| 2026-05-06 11:19 | 55.94028 | 37.55689 | 22904 ft | 450 kts | 120° |
| 2026-05-06 11:19 | 55.92960 | 37.60937 | 23413 ft | 455 kts | 102° |
| 2026-05-06 11:20 | 55.92410 | 37.66509 | 23840 ft | 457 kts | 100° |
| 2026-05-06 11:20 | 55.91868 | 37.72085 | 24278 ft | 456 kts | 102° |
| 2026-05-06 11:20 | 55.90860 | 37.77431 | 24680 ft | 455 kts | 120° |
| 2026-05-06 11:20 | 55.89246 | 37.82272 | 25079 ft | 456 kts | 123° |
| 2026-05-06 11:21 | 55.87620 | 37.87141 | 25405 ft | 460 kts | 122° |
| 2026-05-06 11:21 | 55.85987 | 37.92073 | 25711 ft | 462 kts | 127° |
| 2026-05-06 11:21 | 55.83772 | 37.96145 | 26000 ft | 458 kts | 148° |
| 2026-05-06 11:21 | 55.80974 | 37.98702 | 26442 ft | 450 kts | 165° |
| 2026-05-06 11:22 | 55.77942 | 37.99781 | 26953 ft | 439 kts | 181° |
| 2026-05-06 11:22 | 55.74942 | 37.99417 | 27482 ft | 428 kts | 197° |
| 2026-05-06 11:22 | 55.72141 | 37.97782 | 28011 ft | 420 kts | 209° |
| 2026-05-06 11:22 | 55.69679 | 37.95119 | 28430 ft | 413 kts | 223° |
| 2026-05-06 11:23 | 55.67580 | 37.91696 | 28875 ft | 411 kts | 224° |
| 2026-05-06 11:23 | 55.65158 | 37.88927 | 29285 ft | 420 kts | 207° |
| 2026-05-06 11:23 | 55.62342 | 37.87495 | 29755 ft | 427 kts | 191° |
| 2026-05-06 11:23 | 55.59344 | 37.87513 | 30179 ft | 432 kts | 179° |
| 2026-05-06 11:24 | 55.56353 | 37.88045 | 30538 ft | 433 kts | 178° |
| 2026-05-06 11:24 | 55.53349 | 37.88642 | 30833 ft | 435 kts | 178° |
| 2026-05-06 11:24 | 55.50337 | 37.89221 | 31148 ft | 435 kts | 178° |
| 2026-05-06 11:24 | 55.47320 | 37.89758 | 31511 ft | 435 kts | 179° |
| 2026-05-06 11:25 | 55.44292 | 37.90263 | 31589 ft | 441 kts | 179° |
| 2026-05-06 11:25 | 55.38137 | 37.92053 | 31665 ft | 464 kts | 159° |
| 2026-05-06 11:25 | 55.35323 | 37.94946 | 31781 ft | 472 kts | 149° |
| 2026-05-06 11:26 | 55.32594 | 37.98211 | 31938 ft | 476 kts | 148° |
| 2026-05-06 11:26 | 55.29860 | 38.01529 | 32110 ft | 479 kts | 148° |
| 2026-05-06 11:26 | 55.27126 | 38.04835 | 32483 ft | 475 kts | 148° |
| 2026-05-06 11:26 | 55.24415 | 38.08081 | 33068 ft | 468 kts | 148° |
| 2026-05-06 11:27 | 55.21757 | 38.11231 | 33326 ft | 469 kts | 148° |
| 2026-05-06 11:27 | 55.19030 | 38.14431 | 33433 ft | 473 kts | 148° |
| 2026-05-06 11:27 | 55.16289 | 38.17631 | 33594 ft | 475 kts | 148° |
| 2026-05-06 11:27 | 55.13545 | 38.20825 | 33905 ft | 473 kts | 148° |
| 2026-05-06 11:28 | 55.10803 | 38.24012 | 34213 ft | 471 kts | 148° |
| 2026-05-06 11:28 | 55.08083 | 38.27170 | 34506 ft | 469 kts | 148° |
| 2026-05-06 11:28 | 55.05362 | 38.30324 | 34769 ft | 468 kts | 148° |
| 2026-05-06 11:29 | 54.99950 | 38.36584 | 34858 ft | 464 kts | 148° |
| 2026-05-06 11:29 | 54.94574 | 38.42783 | 34873 ft | 464 kts | 148° |
| 2026-05-06 11:30 | 54.89185 | 38.48976 | 34868 ft | 465 kts | 149° |
| 2026-05-06 11:30 | 54.83770 | 38.55181 | 34870 ft | 466 kts | 149° |
| 2026-05-06 11:31 | 54.78359 | 38.61363 | 34862 ft | 467 kts | 149° |
| 2026-05-06 11:31 | 54.72888 | 38.67414 | 34857 ft | 466 kts | 151° |
| 2026-05-06 11:32 | 54.67296 | 38.73119 | 34859 ft | 465 kts | 152° |
| 2026-05-06 11:32 | 54.61739 | 38.78851 | 34853 ft | 465 kts | 151° |
| 2026-05-06 11:33 | 54.56229 | 38.84564 | 34855 ft | 464 kts | 151° |
| 2026-05-06 11:33 | 54.50702 | 38.90270 | 34860 ft | 462 kts | 151° |
| 2026-05-06 11:34 | 54.46115 | 38.94994 | 34854 ft | 461 kts | 151° |
| 2026-05-06 11:34 | 54.40651 | 39.00754 | 34842 ft | 461 kts | 142° |
| 2026-05-06 11:34 | 54.38437 | 39.04716 | 34872 ft | 462 kts | 125° |
| 2026-05-06 11:35 | 54.36946 | 39.09582 | 34865 ft | 462 kts | 112° |
| 2026-05-06 11:35 | 54.34649 | 39.19885 | 34855 ft | 463 kts | 112° |
| 2026-05-06 11:36 | 54.32231 | 39.30103 | 34854 ft | 463 kts | 113° |
| 2026-05-06 11:36 | 54.29754 | 39.40279 | 34859 ft | 463 kts | 113° |
| 2026-05-06 11:37 | 54.27269 | 39.50450 | 34858 ft | 463 kts | 113° |
| 2026-05-06 11:37 | 54.24781 | 39.60622 | 34860 ft | 464 kts | 113° |
| 2026-05-06 11:38 | 54.22284 | 39.70792 | 34864 ft | 464 kts | 113° |
| 2026-05-06 11:38 | 54.19772 | 39.80977 | 34856 ft | 464 kts | 113° |
| 2026-05-06 11:39 | 54.17254 | 39.91141 | 34854 ft | 465 kts | 113° |
| 2026-05-06 11:39 | 54.14726 | 40.01298 | 34859 ft | 465 kts | 113° |
| 2026-05-06 11:40 | 54.12189 | 40.11449 | 34857 ft | 465 kts | 113° |
| 2026-05-06 11:40 | 54.10104 | 40.21867 | 34855 ft | 465 kts | 106° |
| 2026-05-06 11:41 | 54.08343 | 40.32470 | 34856 ft | 465 kts | 106° |
| 2026-05-06 11:41 | 54.06556 | 40.43044 | 34852 ft | 464 kts | 107° |
| 2026-05-06 11:42 | 54.04715 | 40.53570 | 34849 ft | 464 kts | 107° |
| 2026-05-06 11:42 | 54.02854 | 40.64063 | 34858 ft | 463 kts | 107° |
| 2026-05-06 11:43 | 54.00999 | 40.74462 | 34855 ft | 462 kts | 107° |
| 2026-05-06 11:43 | 53.99128 | 40.84905 | 34855 ft | 462 kts | 107° |
| 2026-05-06 11:44 | 53.96309 | 41.00544 | 34852 ft | 461 kts | 107° |
| 2026-05-06 11:44 | 53.94495 | 41.10957 | 34854 ft | 460 kts | 105° |
| 2026-05-06 11:45 | 53.92811 | 41.21444 | 34861 ft | 460 kts | 105° |
| 2026-05-06 11:45 | 53.91120 | 41.31920 | 34864 ft | 460 kts | 105° |
| 2026-05-06 11:46 | 53.89398 | 41.42392 | 34854 ft | 460 kts | 105° |
| 2026-05-06 11:46 | 53.87663 | 41.52836 | 34861 ft | 460 kts | 106° |
| 2026-05-06 11:47 | 53.85916 | 41.63297 | 34863 ft | 460 kts | 106° |
| 2026-05-06 11:47 | 53.84166 | 41.73722 | 34854 ft | 461 kts | 106° |
| 2026-05-06 11:48 | 53.82386 | 41.84170 | 34851 ft | 461 kts | 106° |
| 2026-05-06 11:48 | 53.80598 | 41.94520 | 34864 ft | 461 kts | 106° |
| 2026-05-06 11:49 | 53.78791 | 42.04933 | 34859 ft | 461 kts | 106° |
| 2026-05-06 11:49 | 53.76979 | 42.15331 | 34860 ft | 461 kts | 107° |
| 2026-05-06 11:50 | 53.75156 | 42.25737 | 34864 ft | 461 kts | 107° |
| 2026-05-06 11:50 | 53.73329 | 42.36111 | 34873 ft | 460 kts | 107° |
| 2026-05-06 11:51 | 53.71498 | 42.46445 | 34864 ft | 460 kts | 107° |
| 2026-05-06 11:51 | 53.69656 | 42.56789 | 34866 ft | 459 kts | 107° |
| 2026-05-06 11:52 | 53.66941 | 42.66387 | 34897 ft | 455 kts | 134° |
| 2026-05-06 11:52 | 53.64564 | 42.69891 | 34851 ft | 453 kts | 149° |
| 2026-05-06 11:52 | 53.61768 | 42.72268 | 34902 ft | 450 kts | 158° |
| 2026-05-06 11:53 | 53.55965 | 42.76343 | 34876 ft | 451 kts | 158° |
| 2026-05-06 11:53 | 53.50192 | 42.80356 | 34873 ft | 452 kts | 158° |
| 2026-05-06 11:54 | 53.44394 | 42.84477 | 34880 ft | 453 kts | 157° |
| 2026-05-06 11:54 | 53.38587 | 42.88636 | 34875 ft | 453 kts | 158° |
| 2026-05-06 11:55 | 53.32794 | 42.92776 | 34885 ft | 453 kts | 157° |
| 2026-05-06 11:55 | 53.26985 | 42.96914 | 34885 ft | 454 kts | 157° |
| 2026-05-06 11:56 | 53.21172 | 43.01038 | 34875 ft | 454 kts | 157° |
| 2026-05-06 11:56 | 53.15369 | 43.05191 | 34866 ft | 454 kts | 156° |
| 2026-05-06 11:57 | 53.09539 | 43.09179 | 34873 ft | 453 kts | 156° |
| 2026-05-06 11:57 | 53.03807 | 43.13501 | 34879 ft | 452 kts | 155° |
| 2026-05-06 11:58 | 52.98102 | 43.17854 | 34878 ft | 452 kts | 155° |
| 2026-05-06 11:58 | 52.92367 | 43.22142 | 34884 ft | 451 kts | 156° |
| 2026-05-06 11:59 | 52.86635 | 43.26372 | 34895 ft | 451 kts | 156° |
| 2026-05-06 11:59 | 52.80938 | 43.30551 | 34885 ft | 451 kts | 156° |
| 2026-05-06 12:00 | 52.75179 | 43.34779 | 34888 ft | 450 kts | 156° |
| 2026-05-06 12:00 | 52.69493 | 43.38938 | 34900 ft | 450 kts | 156° |
| 2026-05-06 12:01 | 52.63785 | 43.43176 | 34906 ft | 450 kts | 156° |
| 2026-05-06 12:01 | 52.58045 | 43.47312 | 34885 ft | 450 kts | 156° |
| 2026-05-06 12:02 | 52.52318 | 43.51454 | 34901 ft | 449 kts | 156° |
| 2026-05-06 12:02 | 52.46589 | 43.55587 | 34898 ft | 449 kts | 156° |
| 2026-05-06 12:03 | 52.40866 | 43.59705 | 34894 ft | 449 kts | 156° |
| 2026-05-06 12:03 | 52.35126 | 43.63828 | 34905 ft | 449 kts | 156° |
| 2026-05-06 12:04 | 52.29395 | 43.67957 | 34871 ft | 451 kts | 156° |
| 2026-05-06 12:04 | 52.23617 | 43.71910 | 34890 ft | 450 kts | 156° |
| 2026-05-06 12:05 | 52.17889 | 43.76029 | 34892 ft | 451 kts | 155° |
| 2026-05-06 12:05 | 52.12142 | 43.80174 | 34904 ft | 451 kts | 156° |
| 2026-05-06 12:06 | 52.06382 | 43.84179 | 34909 ft | 450 kts | 156° |
| 2026-05-06 12:06 | 52.00690 | 43.88224 | 34906 ft | 449 kts | 155° |
| 2026-05-06 12:07 | 51.94972 | 43.92292 | 34902 ft | 448 kts | 156° |
| 2026-05-06 12:07 | 51.89264 | 43.96329 | 34905 ft | 446 kts | 156° |
| 2026-05-06 12:08 | 51.83563 | 44.00319 | 34895 ft | 445 kts | 156° |
| 2026-05-06 12:08 | 51.77888 | 44.04277 | 34912 ft | 443 kts | 156° |
| 2026-05-06 12:09 | 51.72235 | 44.08224 | 34899 ft | 442 kts | 156° |
| 2026-05-06 12:09 | 51.66590 | 44.12137 | 34900 ft | 442 kts | 156° |
| 2026-05-06 12:10 | 51.60969 | 44.16034 | 34904 ft | 442 kts | 156° |
| 2026-05-06 12:10 | 51.55318 | 44.19948 | 34914 ft | 443 kts | 156° |
| 2026-05-06 12:11 | 51.49646 | 44.23867 | 34892 ft | 444 kts | 156° |
| 2026-05-06 12:11 | 51.43958 | 44.27773 | 34898 ft | 445 kts | 156° |
| 2026-05-06 12:12 | 51.38260 | 44.31675 | 34900 ft | 446 kts | 156° |
| 2026-05-06 12:12 | 51.32543 | 44.35583 | 34896 ft | 446 kts | 156° |
| 2026-05-06 12:13 | 51.27791 | 44.38822 | 34906 ft | 446 kts | 156° |
| 2026-05-06 12:13 | 51.21147 | 44.43340 | 34899 ft | 446 kts | 156° |
| 2026-05-06 12:14 | 51.16241 | 44.46014 | 34899 ft | 446 kts | 168° |
| 2026-05-06 12:14 | 51.10049 | 44.46545 | 34909 ft | 447 kts | 182° |
| 2026-05-06 12:15 | 51.03869 | 44.45883 | 34902 ft | 447 kts | 183° |
| 2026-05-06 12:15 | 50.97663 | 44.45216 | 34901 ft | 447 kts | 182° |
| 2026-05-06 12:16 | 50.91459 | 44.44604 | 34904 ft | 446 kts | 182° |
| 2026-05-06 12:16 | 50.85256 | 44.44023 | 34903 ft | 446 kts | 182° |
| 2026-05-06 12:17 | 50.79063 | 44.43450 | 34907 ft | 446 kts | 182° |
| 2026-05-06 12:17 | 50.72849 | 44.42876 | 34907 ft | 447 kts | 182° |
| 2026-05-06 12:18 | 50.66640 | 44.42303 | 34918 ft | 447 kts | 182° |
| 2026-05-06 12:18 | 50.60428 | 44.41731 | 34909 ft | 447 kts | 182° |
| 2026-05-06 12:19 | 50.54214 | 44.41160 | 34914 ft | 447 kts | 182° |
| 2026-05-06 12:19 | 50.48003 | 44.40591 | 34915 ft | 447 kts | 182° |
| 2026-05-06 12:20 | 50.41795 | 44.40023 | 34913 ft | 447 kts | 182° |
| 2026-05-06 12:20 | 50.35622 | 44.39460 | 34915 ft | 446 kts | 182° |
| 2026-05-06 12:21 | 50.29427 | 44.38897 | 34928 ft | 445 kts | 181° |
| 2026-05-06 12:21 | 50.23237 | 44.38335 | 34917 ft | 444 kts | 181° |
| 2026-05-06 12:22 | 50.17074 | 44.37778 | 34918 ft | 443 kts | 181° |
| 2026-05-06 12:22 | 50.10965 | 44.37227 | 34916 ft | 441 kts | 181° |
| 2026-05-06 12:23 | 50.04812 | 44.36673 | 34922 ft | 440 kts | 181° |
| 2026-05-06 12:23 | 49.98745 | 44.36129 | 34931 ft | 439 kts | 181° |
| 2026-05-06 12:24 | 49.92649 | 44.35583 | 34915 ft | 438 kts | 181° |
| 2026-05-06 12:24 | 49.86551 | 44.35038 | 34918 ft | 438 kts | 181° |
| 2026-05-06 12:25 | 49.80460 | 44.34496 | 34918 ft | 437 kts | 181° |
| 2026-05-06 12:25 | 49.74413 | 44.33958 | 34925 ft | 437 kts | 181° |
| 2026-05-06 12:26 | 49.68334 | 44.33419 | 34918 ft | 438 kts | 181° |
| 2026-05-06 12:26 | 49.62251 | 44.32881 | 34927 ft | 438 kts | 181° |
| 2026-05-06 12:27 | 49.56206 | 44.33264 | 34929 ft | 433 kts | 166° |
| 2026-05-06 12:27 | 49.50530 | 44.36227 | 34933 ft | 431 kts | 155° |
| 2026-05-06 12:28 | 49.45005 | 44.39839 | 34928 ft | 432 kts | 155° |
| 2026-05-06 12:28 | 49.39460 | 44.43426 | 34924 ft | 433 kts | 155° |
| 2026-05-06 12:29 | 49.33890 | 44.46973 | 34927 ft | 434 kts | 155° |
| 2026-05-06 12:29 | 49.28306 | 44.50503 | 34935 ft | 434 kts | 155° |
| 2026-05-06 12:30 | 49.22711 | 44.54030 | 34929 ft | 435 kts | 155° |
| 2026-05-06 12:30 | 49.17118 | 44.57548 | 34935 ft | 435 kts | 155° |
| 2026-05-06 12:31 | 49.11501 | 44.61073 | 34926 ft | 436 kts | 155° |
| 2026-05-06 12:31 | 49.05888 | 44.64587 | 34935 ft | 436 kts | 155° |
| 2026-05-06 12:32 | 49.00270 | 44.68097 | 34933 ft | 436 kts | 155° |
| 2026-05-06 12:32 | 48.94647 | 44.71601 | 34936 ft | 437 kts | 155° |
| 2026-05-06 12:33 | 48.89018 | 44.75101 | 34930 ft | 437 kts | 155° |
| 2026-05-06 12:33 | 48.83455 | 44.78836 | 34929 ft | 435 kts | 147° |
| 2026-05-06 12:34 | 48.78630 | 44.84255 | 34932 ft | 432 kts | 139° |
| 2026-05-06 12:34 | 48.73950 | 44.89914 | 34924 ft | 432 kts | 139° |
| 2026-05-06 12:35 | 48.69220 | 44.95557 | 34931 ft | 433 kts | 140° |
| 2026-05-06 12:35 | 48.64469 | 45.01170 | 34922 ft | 433 kts | 140° |
| 2026-05-06 12:36 | 48.59710 | 45.06770 | 34918 ft | 433 kts | 140° |
| 2026-05-06 12:36 | 48.54946 | 45.12363 | 34919 ft | 434 kts | 140° |
| 2026-05-06 12:37 | 48.50187 | 45.17938 | 34919 ft | 434 kts | 140° |
| 2026-05-06 12:37 | 48.45418 | 45.23515 | 34917 ft | 434 kts | 140° |
| 2026-05-06 12:38 | 48.40633 | 45.29047 | 34909 ft | 434 kts | 143° |
| 2026-05-06 12:38 | 48.35308 | 45.33370 | 34910 ft | 436 kts | 152° |
| 2026-05-06 12:39 | 48.29843 | 45.37291 | 34903 ft | 436 kts | 152° |
| 2026-05-06 12:39 | 48.24379 | 45.41238 | 34917 ft | 435 kts | 152° |
| 2026-05-06 12:40 | 48.18926 | 45.45212 | 34901 ft | 436 kts | 152° |
| 2026-05-06 12:40 | 48.13473 | 45.49194 | 34904 ft | 436 kts | 152° |
| 2026-05-06 12:41 | 48.08027 | 45.53163 | 34888 ft | 436 kts | 152° |
| 2026-05-06 12:41 | 48.02566 | 45.57133 | 34906 ft | 436 kts | 152° |
| 2026-05-06 12:42 | 47.97096 | 45.61099 | 34895 ft | 437 kts | 152° |
| 2026-05-06 12:42 | 47.91618 | 45.65062 | 34888 ft | 438 kts | 152° |
| 2026-05-06 12:43 | 47.86138 | 45.69016 | 34892 ft | 439 kts | 153° |
| 2026-05-06 12:43 | 47.80636 | 45.72978 | 34896 ft | 439 kts | 152° |
| 2026-05-06 12:44 | 47.75122 | 45.76939 | 34893 ft | 441 kts | 153° |
| 2026-05-06 12:44 | 47.69593 | 45.80900 | 34888 ft | 441 kts | 153° |
| 2026-05-06 12:45 | 47.64061 | 45.84855 | 34891 ft | 442 kts | 153° |
| 2026-05-06 12:46 | 47.55739 | 45.90786 | 34879 ft | 443 kts | 153° |
| 2026-05-06 12:46 | 47.50185 | 45.94734 | 34880 ft | 443 kts | 153° |
| 2026-05-06 12:47 | 47.44633 | 45.98672 | 34894 ft | 442 kts | 153° |
| 2026-05-06 12:47 | 47.39087 | 46.02595 | 34879 ft | 442 kts | 153° |
| 2026-05-06 12:48 | 47.33560 | 46.06500 | 34878 ft | 441 kts | 153° |
| 2026-05-06 12:48 | 47.28030 | 46.10401 | 34896 ft | 440 kts | 153° |
| 2026-05-06 12:49 | 47.22502 | 46.14294 | 34888 ft | 440 kts | 153° |
| 2026-05-06 12:49 | 47.16977 | 46.18176 | 34899 ft | 440 kts | 153° |
| 2026-05-06 12:50 | 47.11460 | 46.22043 | 34885 ft | 440 kts | 153° |
| 2026-05-06 12:50 | 47.06132 | 46.26403 | 34887 ft | 439 kts | 140° |
| 2026-05-06 12:51 | 47.01982 | 46.32899 | 34887 ft | 438 kts | 123° |
| 2026-05-06 12:51 | 46.98735 | 46.40452 | 34892 ft | 438 kts | 122° |
| 2026-05-06 12:52 | 46.95512 | 46.48025 | 34896 ft | 439 kts | 122° |
| 2026-05-06 12:52 | 46.92242 | 46.55585 | 34883 ft | 440 kts | 122° |
| 2026-05-06 12:53 | 46.88948 | 46.63126 | 34897 ft | 440 kts | 122° |
| 2026-05-06 12:53 | 46.85642 | 46.70663 | 34885 ft | 440 kts | 123° |
| 2026-05-06 12:54 | 46.82893 | 46.76915 | 34883 ft | 440 kts | 123° |
| 2026-05-06 12:54 | 46.79578 | 46.84439 | 34878 ft | 440 kts | 123° |
| 2026-05-06 12:55 | 46.76240 | 46.91998 | 34884 ft | 440 kts | 123° |
| 2026-05-06 12:55 | 46.72925 | 46.99485 | 34883 ft | 440 kts | 123° |
| 2026-05-06 12:56 | 46.69601 | 47.06968 | 34881 ft | 440 kts | 123° |
| 2026-05-06 12:56 | 46.66328 | 47.14431 | 34889 ft | 440 kts | 122° |
| 2026-05-06 12:57 | 46.63055 | 47.21958 | 34878 ft | 440 kts | 122° |
| 2026-05-06 12:57 | 46.59757 | 47.29516 | 34890 ft | 440 kts | 123° |
| 2026-05-06 12:58 | 46.56467 | 47.37023 | 34882 ft | 440 kts | 123° |
| 2026-05-06 12:58 | 46.53170 | 47.44522 | 34892 ft | 440 kts | 123° |
| 2026-05-06 12:59 | 46.49867 | 47.52015 | 34881 ft | 440 kts | 123° |
| 2026-05-06 12:59 | 46.46562 | 47.59490 | 34881 ft | 441 kts | 123° |
| 2026-05-06 13:00 | 46.43245 | 47.66973 | 34883 ft | 441 kts | 123° |
| 2026-05-06 13:00 | 46.39919 | 47.74459 | 34888 ft | 442 kts | 123° |
| 2026-05-06 13:01 | 46.36584 | 47.81944 | 34890 ft | 442 kts | 123° |
| 2026-05-06 13:01 | 46.33241 | 47.89428 | 34883 ft | 443 kts | 124° |
| 2026-05-06 13:02 | 46.29900 | 47.96892 | 34880 ft | 442 kts | 123° |
| 2026-05-06 13:02 | 46.27383 | 48.05004 | 34878 ft | 445 kts | 105° |
| 2026-05-06 13:03 | 46.26077 | 48.13757 | 34880 ft | 446 kts | 103° |
| 2026-05-06 13:03 | 46.24800 | 48.22517 | 34875 ft | 445 kts | 104° |
| 2026-05-06 13:04 | 46.23478 | 48.31238 | 34874 ft | 445 kts | 104° |
| 2026-05-06 13:04 | 46.22132 | 48.39961 | 34873 ft | 445 kts | 104° |
| 2026-05-06 13:05 | 46.20781 | 48.48682 | 34865 ft | 445 kts | 104° |
| 2026-05-06 13:05 | 46.18609 | 48.56902 | 34866 ft | 438 kts | 130° |
| 2026-05-06 13:05 | 46.16465 | 48.59975 | 34852 ft | 435 kts | 144° |
| 2026-05-06 13:06 | 46.13839 | 48.62228 | 34848 ft | 433 kts | 159° |
| 2026-05-06 13:06 | 46.08127 | 48.64706 | 34846 ft | 433 kts | 165° |
| 2026-05-06 13:07 | 46.02299 | 48.66925 | 34850 ft | 434 kts | 165° |
| 2026-05-06 13:07 | 45.96463 | 48.69187 | 34856 ft | 434 kts | 165° |
| 2026-05-06 13:08 | 45.90589 | 48.71517 | 34850 ft | 435 kts | 165° |
| 2026-05-06 13:08 | 45.84758 | 48.73848 | 34878 ft | 436 kts | 165° |
| 2026-05-06 13:09 | 45.78905 | 48.76187 | 34864 ft | 437 kts | 165° |
| 2026-05-06 13:09 | 45.73043 | 48.78524 | 34864 ft | 437 kts | 165° |
| 2026-05-06 13:10 | 45.67179 | 48.80855 | 34874 ft | 437 kts | 165° |
| 2026-05-06 13:10 | 45.61326 | 48.83177 | 34869 ft | 437 kts | 165° |
| 2026-05-06 13:11 | 45.55507 | 48.85480 | 34878 ft | 436 kts | 165° |
| 2026-05-06 13:11 | 45.49656 | 48.87791 | 34883 ft | 436 kts | 165° |
| 2026-05-06 13:12 | 45.43814 | 48.90093 | 34894 ft | 435 kts | 165° |
| 2026-05-06 13:12 | 45.37987 | 48.92384 | 34889 ft | 435 kts | 165° |
| 2026-05-06 13:13 | 45.32157 | 48.94672 | 34897 ft | 434 kts | 165° |
| 2026-05-06 13:13 | 45.26334 | 48.96952 | 34898 ft | 433 kts | 166° |
| 2026-05-06 13:14 | 45.20521 | 48.99223 | 34908 ft | 433 kts | 166° |
| 2026-05-06 13:14 | 45.14723 | 49.01484 | 34910 ft | 432 kts | 166° |
| 2026-05-06 13:15 | 45.08922 | 49.03741 | 34922 ft | 432 kts | 166° |
| 2026-05-06 13:15 | 45.03122 | 49.05993 | 34913 ft | 432 kts | 166° |
| 2026-05-06 13:16 | 44.97325 | 49.08239 | 34916 ft | 432 kts | 166° |
| 2026-05-06 13:16 | 44.91539 | 49.10476 | 34918 ft | 432 kts | 166° |
| 2026-05-06 13:17 | 44.85742 | 49.12712 | 34926 ft | 432 kts | 166° |
| 2026-05-06 13:17 | 44.79948 | 49.14943 | 34928 ft | 431 kts | 166° |
| 2026-05-06 13:18 | 44.74156 | 49.17169 | 34932 ft | 431 kts | 166° |
| 2026-05-06 13:18 | 44.68373 | 49.19386 | 34933 ft | 431 kts | 166° |
| 2026-05-06 13:19 | 44.62576 | 49.21604 | 34922 ft | 432 kts | 167° |
| 2026-05-06 13:19 | 44.56781 | 49.23817 | 34939 ft | 431 kts | 167° |
| 2026-05-06 13:20 | 44.51024 | 49.26011 | 34938 ft | 431 kts | 167° |
| 2026-05-06 13:20 | 44.45200 | 49.28226 | 34944 ft | 431 kts | 167° |
| 2026-05-06 13:21 | 44.39443 | 49.30410 | 34948 ft | 431 kts | 167° |
| 2026-05-06 13:21 | 44.33652 | 49.32604 | 34958 ft | 431 kts | 167° |
| 2026-05-06 13:22 | 44.27858 | 49.34794 | 34950 ft | 431 kts | 167° |
| 2026-05-06 13:22 | 44.22033 | 49.36990 | 34950 ft | 431 kts | 167° |
| 2026-05-06 13:23 | 44.16277 | 49.39158 | 34946 ft | 431 kts | 167° |
| 2026-05-06 13:23 | 44.10486 | 49.41333 | 34941 ft | 431 kts | 167° |
| 2026-05-06 13:24 | 44.04696 | 49.43505 | 34958 ft | 431 kts | 167° |
| 2026-05-06 13:24 | 43.98918 | 49.45665 | 34946 ft | 430 kts | 168° |
| 2026-05-06 13:24 | 43.95975 | 49.46200 | 34944 ft | 424 kts | 185° |
| 2026-05-06 13:25 | 43.93100 | 49.45490 | 34959 ft | 420 kts | 199° |
| 2026-05-06 13:25 | 43.90466 | 49.43775 | 34966 ft | 419 kts | 213° |
| 2026-05-06 13:25 | 43.88218 | 49.41190 | 34955 ft | 421 kts | 226° |
| 2026-05-06 13:25 | 43.86483 | 49.37919 | 34964 ft | 424 kts | 238° |
| 2026-05-06 13:26 | 43.85352 | 49.34123 | 34956 ft | 430 kts | 253° |
| 2026-05-06 13:26 | 43.84302 | 49.25953 | 34961 ft | 432 kts | 257° |
| 2026-05-06 13:27 | 43.83396 | 49.17705 | 34963 ft | 433 kts | 258° |
| 2026-05-06 13:27 | 43.82440 | 49.09455 | 34964 ft | 434 kts | 257° |
| 2026-05-06 13:28 | 43.81442 | 49.01208 | 34956 ft | 434 kts | 257° |
| 2026-05-06 13:28 | 43.80428 | 48.92968 | 34960 ft | 435 kts | 257° |
| 2026-05-06 13:29 | 43.79405 | 48.84702 | 34961 ft | 436 kts | 257° |
| 2026-05-06 13:29 | 43.78376 | 48.76425 | 34967 ft | 437 kts | 257° |
| 2026-05-06 13:30 | 43.77339 | 48.68137 | 34967 ft | 437 kts | 257° |
| 2026-05-06 13:30 | 43.76299 | 48.59857 | 34963 ft | 437 kts | 257° |
| 2026-05-06 13:31 | 43.75246 | 48.51564 | 34966 ft | 438 kts | 257° |
| 2026-05-06 13:31 | 43.74182 | 48.43278 | 34968 ft | 437 kts | 257° |
| 2026-05-06 13:32 | 43.73114 | 48.34999 | 34967 ft | 437 kts | 257° |
| 2026-05-06 13:32 | 43.72042 | 48.26726 | 34966 ft | 437 kts | 257° |
| 2026-05-06 13:33 | 43.70966 | 48.18476 | 34969 ft | 437 kts | 257° |
| 2026-05-06 13:33 | 43.69883 | 48.10213 | 34967 ft | 437 kts | 257° |
| 2026-05-06 13:34 | 43.68801 | 48.02010 | 34972 ft | 437 kts | 257° |
| 2026-05-06 13:34 | 43.67706 | 47.93752 | 34978 ft | 437 kts | 257° |
| 2026-05-06 13:35 | 43.66606 | 47.85506 | 34972 ft | 437 kts | 257° |
| 2026-05-06 13:35 | 43.65498 | 47.77248 | 34982 ft | 437 kts | 257° |
| 2026-05-06 13:36 | 43.64567 | 47.70339 | 34982 ft | 437 kts | 257° |
| 2026-05-06 13:36 | 43.63448 | 47.62082 | 34980 ft | 437 kts | 257° |
| 2026-05-06 13:37 | 43.62331 | 47.53882 | 34985 ft | 437 kts | 257° |
| 2026-05-06 13:37 | 43.61357 | 47.45590 | 34996 ft | 438 kts | 261° |
| 2026-05-06 13:38 | 43.60688 | 47.37240 | 34983 ft | 439 kts | 262° |
| 2026-05-06 13:38 | 43.60041 | 47.28867 | 34992 ft | 439 kts | 262° |
| 2026-05-06 13:39 | 43.59363 | 47.20500 | 34991 ft | 439 kts | 262° |
| 2026-05-06 13:39 | 43.58662 | 47.12136 | 34991 ft | 439 kts | 262° |
| 2026-05-06 13:40 | 43.57952 | 47.03788 | 34990 ft | 439 kts | 262° |
| 2026-05-06 13:40 | 43.57235 | 46.95417 | 34997 ft | 439 kts | 262° |
| 2026-05-06 13:41 | 43.56513 | 46.87060 | 34995 ft | 439 kts | 262° |
| 2026-05-06 13:41 | 43.55785 | 46.78706 | 35010 ft | 439 kts | 262° |
| 2026-05-06 13:42 | 43.55050 | 46.70347 | 35000 ft | 439 kts | 262° |
| 2026-05-06 13:42 | 43.54309 | 46.61981 | 35004 ft | 440 kts | 262° |
| 2026-05-06 13:43 | 43.53561 | 46.53612 | 35003 ft | 440 kts | 262° |
| 2026-05-06 13:43 | 43.52806 | 46.45242 | 35003 ft | 440 kts | 262° |
| 2026-05-06 13:44 | 43.52046 | 46.36875 | 35006 ft | 440 kts | 262° |
| 2026-05-06 13:44 | 43.51279 | 46.28505 | 35006 ft | 440 kts | 262° |
| 2026-05-06 13:45 | 43.50506 | 46.20132 | 35011 ft | 440 kts | 262° |
| 2026-05-06 13:45 | 43.49337 | 46.07586 | 35014 ft | 441 kts | 262° |
| 2026-05-06 13:46 | 43.49288 | 45.99167 | 35017 ft | 442 kts | 275° |
| 2026-05-06 13:46 | 43.50032 | 45.90743 | 35059 ft | 446 kts | 276° |
| 2026-05-06 13:47 | 43.50413 | 45.86500 | 35258 ft | 447 kts | 276° |
| 2026-05-06 13:47 | 43.50783 | 45.82262 | 35583 ft | 444 kts | 275° |
| 2026-05-06 13:47 | 43.51142 | 45.78046 | 35879 ft | 443 kts | 275° |
| 2026-05-06 13:47 | 43.51492 | 45.73831 | 36022 ft | 444 kts | 275° |
| 2026-05-06 13:48 | 43.52182 | 45.65332 | 36026 ft | 447 kts | 275° |
| 2026-05-06 13:48 | 43.52861 | 45.56855 | 36014 ft | 443 kts | 275° |
| 2026-05-06 13:49 | 43.53527 | 45.48454 | 36017 ft | 441 kts | 275° |
| 2026-05-06 13:49 | 43.54186 | 45.40072 | 36018 ft | 439 kts | 275° |
| 2026-05-06 13:50 | 43.54838 | 45.31706 | 36016 ft | 439 kts | 275° |
| 2026-05-06 13:50 | 43.55483 | 45.23354 | 36020 ft | 439 kts | 275° |
| 2026-05-06 13:51 | 43.56124 | 45.14962 | 36017 ft | 441 kts | 275° |
| 2026-05-06 13:51 | 43.56763 | 45.06528 | 36022 ft | 443 kts | 275° |
| 2026-05-06 13:52 | 43.57398 | 44.98041 | 36014 ft | 446 kts | 275° |
| 2026-05-06 13:52 | 43.58030 | 44.89527 | 36019 ft | 448 kts | 275° |
| 2026-05-06 13:53 | 43.58659 | 44.80964 | 36014 ft | 449 kts | 274° |
| 2026-05-06 13:53 | 43.59283 | 44.72374 | 36009 ft | 450 kts | 275° |
| 2026-05-06 13:54 | 43.59902 | 44.63767 | 36017 ft | 451 kts | 274° |
| 2026-05-06 13:54 | 43.60514 | 44.55170 | 36007 ft | 451 kts | 275° |
| 2026-05-06 13:55 | 43.61120 | 44.46566 | 36010 ft | 450 kts | 274° |
| 2026-05-06 13:55 | 43.61714 | 44.38032 | 36009 ft | 449 kts | 274° |
| 2026-05-06 13:56 | 43.62304 | 44.29471 | 36008 ft | 448 kts | 274° |
| 2026-05-06 13:56 | 43.62888 | 44.20909 | 36008 ft | 447 kts | 274° |
| 2026-05-06 13:57 | 43.63462 | 44.12357 | 36007 ft | 447 kts | 274° |
| 2026-05-06 13:57 | 43.63792 | 44.03795 | 36010 ft | 446 kts | 271° |
| 2026-05-06 13:58 | 43.63985 | 43.95229 | 36006 ft | 446 kts | 271° |
| 2026-05-06 13:58 | 43.64190 | 43.86677 | 36008 ft | 446 kts | 271° |
| 2026-05-06 13:59 | 43.64416 | 43.78105 | 36007 ft | 447 kts | 271° |
| 2026-05-06 13:59 | 43.64647 | 43.69528 | 36014 ft | 447 kts | 271° |
| 2026-05-06 14:00 | 43.64874 | 43.60944 | 36014 ft | 447 kts | 271° |
| 2026-05-06 14:00 | 43.65094 | 43.52368 | 36029 ft | 448 kts | 271° |
| 2026-05-06 14:01 | 43.65308 | 43.43767 | 36021 ft | 448 kts | 271° |
| 2026-05-06 14:01 | 43.65513 | 43.35214 | 36028 ft | 449 kts | 271° |
| 2026-05-06 14:02 | 43.65714 | 43.26592 | 36030 ft | 449 kts | 271° |
| 2026-05-06 14:02 | 43.65909 | 43.17961 | 36031 ft | 450 kts | 271° |
| 2026-05-06 14:03 | 43.66097 | 43.09338 | 36043 ft | 450 kts | 270° |
| 2026-05-06 14:03 | 43.66279 | 43.00690 | 36037 ft | 450 kts | 270° |
| 2026-05-06 14:04 | 43.66454 | 42.92039 | 36047 ft | 450 kts | 270° |
| 2026-05-06 14:04 | 43.66623 | 42.83385 | 36049 ft | 451 kts | 270° |
| 2026-05-06 14:05 | 43.66785 | 42.74737 | 36060 ft | 451 kts | 270° |
| 2026-05-06 14:05 | 43.66942 | 42.66065 | 36054 ft | 452 kts | 270° |
| 2026-05-06 14:06 | 43.67091 | 42.57383 | 36072 ft | 452 kts | 270° |
| 2026-05-06 14:06 | 43.67235 | 42.48692 | 36066 ft | 452 kts | 270° |
| 2026-05-06 14:07 | 43.67371 | 42.39998 | 36075 ft | 453 kts | 270° |
| 2026-05-06 14:07 | 43.67502 | 42.31302 | 36073 ft | 454 kts | 270° |
| 2026-05-06 14:08 | 43.67626 | 42.22577 | 36081 ft | 455 kts | 270° |
| 2026-05-06 14:08 | 43.67744 | 42.13838 | 36081 ft | 455 kts | 270° |
| 2026-05-06 14:09 | 43.67855 | 42.05086 | 36085 ft | 456 kts | 270° |
| 2026-05-06 14:09 | 43.67960 | 41.96331 | 36078 ft | 457 kts | 270° |
| 2026-05-06 14:10 | 43.68058 | 41.87546 | 36073 ft | 458 kts | 270° |
| 2026-05-06 14:10 | 43.68149 | 41.78753 | 36073 ft | 458 kts | 270° |
| 2026-05-06 14:11 | 43.68234 | 41.69966 | 36082 ft | 457 kts | 270° |
| 2026-05-06 14:11 | 43.68312 | 41.61202 | 36081 ft | 457 kts | 270° |
| 2026-05-06 14:12 | 43.68383 | 41.52423 | 36072 ft | 457 kts | 270° |
| 2026-05-06 14:12 | 43.68416 | 41.47988 | 35535 ft | 464 kts | 270° |
| 2026-05-06 14:12 | 43.68448 | 41.43607 | 34988 ft | 462 kts | 270° |
| 2026-05-06 14:13 | 43.68478 | 41.39170 | 34415 ft | 462 kts | 270° |
| 2026-05-06 14:13 | 43.68506 | 41.34742 | 33914 ft | 459 kts | 270° |
| 2026-05-06 14:13 | 43.68532 | 41.30354 | 33374 ft | 455 kts | 270° |
| 2026-05-06 14:13 | 43.68557 | 41.26006 | 32907 ft | 451 kts | 270° |
| 2026-05-06 14:14 | 43.68580 | 41.21688 | 32442 ft | 446 kts | 270° |
| 2026-05-06 14:14 | 43.68601 | 41.17426 | 31987 ft | 442 kts | 270° |
| 2026-05-06 14:14 | 43.68620 | 41.13191 | 31540 ft | 438 kts | 270° |
| 2026-05-06 14:14 | 43.68637 | 41.09009 | 31109 ft | 434 kts | 270° |
| 2026-05-06 14:15 | 43.68653 | 41.04863 | 30687 ft | 430 kts | 270° |
| 2026-05-06 14:15 | 43.68667 | 41.00738 | 30255 ft | 427 kts | 270° |
| 2026-05-06 14:15 | 43.68680 | 40.96657 | 29756 ft | 424 kts | 270° |
| 2026-05-06 14:15 | 43.68692 | 40.92609 | 29283 ft | 420 kts | 270° |
| 2026-05-06 14:16 | 43.68701 | 40.88594 | 28838 ft | 415 kts | 270° |
| 2026-05-06 14:16 | 43.68714 | 40.84632 | 28349 ft | 411 kts | 270° |
| 2026-05-06 14:16 | 43.68730 | 40.80688 | 27892 ft | 408 kts | 270° |
| 2026-05-06 14:16 | 43.68746 | 40.76791 | 27455 ft | 404 kts | 270° |
| 2026-05-06 14:17 | 43.68760 | 40.72930 | 27032 ft | 401 kts | 270° |
| 2026-05-06 14:17 | 43.68773 | 40.69088 | 26600 ft | 397 kts | 270° |
| 2026-05-06 14:17 | 43.68784 | 40.65290 | 26178 ft | 394 kts | 270° |
| 2026-05-06 14:17 | 43.68794 | 40.61523 | 25771 ft | 391 kts | 270° |
| 2026-05-06 14:18 | 43.68802 | 40.57770 | 25360 ft | 388 kts | 270° |
| 2026-05-06 14:18 | 43.68809 | 40.54057 | 24944 ft | 386 kts | 270° |
| 2026-05-06 14:18 | 43.68814 | 40.50356 | 24540 ft | 383 kts | 270° |
| 2026-05-06 14:18 | 43.68818 | 40.46688 | 24135 ft | 381 kts | 270° |
| 2026-05-06 14:19 | 43.68821 | 40.43038 | 23730 ft | 379 kts | 270° |
| 2026-05-06 14:19 | 43.68823 | 40.39394 | 23270 ft | 378 kts | 270° |
| 2026-05-06 14:19 | 43.68824 | 40.35783 | 22820 ft | 375 kts | 270° |
| 2026-05-06 14:19 | 43.68824 | 40.32199 | 22399 ft | 372 kts | 270° |
| 2026-05-06 14:20 | 43.68822 | 40.28637 | 21997 ft | 368 kts | 270° |
| 2026-05-06 14:20 | 43.68821 | 40.26298 | 21720 ft | 367 kts | 270° |
| 2026-05-06 14:20 | 43.68819 | 40.22796 | 21335 ft | 363 kts | 270° |
| 2026-05-06 14:20 | 43.68815 | 40.19322 | 20947 ft | 361 kts | 270° |
| 2026-05-06 14:21 | 43.68779 | 40.15864 | 20577 ft | 358 kts | 265° |
| 2026-05-06 14:21 | 43.68090 | 40.12590 | 20172 ft | 357 kts | 241° |
| 2026-05-06 14:21 | 43.66568 | 40.09913 | 19820 ft | 355 kts | 221° |
| 2026-05-06 14:21 | 43.64516 | 40.08054 | 19434 ft | 354 kts | 205° |
| 2026-05-06 14:22 | 43.62273 | 40.06656 | 19064 ft | 355 kts | 203° |
| 2026-05-06 14:22 | 43.60004 | 40.05278 | 18673 ft | 357 kts | 204° |
| 2026-05-06 14:22 | 43.57737 | 40.03884 | 18278 ft | 357 kts | 204° |
| 2026-05-06 14:22 | 43.55471 | 40.02478 | 17835 ft | 358 kts | 204° |
| 2026-05-06 14:23 | 43.53203 | 40.01062 | 17412 ft | 357 kts | 204° |
| 2026-05-06 14:23 | 43.50950 | 39.99652 | 17025 ft | 355 kts | 204° |
| 2026-05-06 14:23 | 43.48711 | 39.98251 | 16637 ft | 351 kts | 204° |
| 2026-05-06 14:23 | 43.46499 | 39.96870 | 16257 ft | 348 kts | 204° |
| 2026-05-06 14:24 | 43.44274 | 39.95563 | 15521 ft | 354 kts | 199° |
| 2026-05-06 14:24 | 43.41892 | 39.94468 | 14591 ft | 366 kts | 197° |
| 2026-05-06 14:24 | 43.39481 | 39.93220 | 13598 ft | 377 kts | 209° |
| 2026-05-06 14:24 | 43.37506 | 39.90816 | 12545 ft | 387 kts | 234° |
| 2026-05-06 14:25 | 43.36354 | 39.87452 | 11489 ft | 393 kts | 257° |
| 2026-05-06 14:25 | 43.36228 | 39.83728 | 10812 ft | 389 kts | 280° |
| 2026-05-06 14:25 | 43.37064 | 39.80364 | 10685 ft | 368 kts | 301° |
| 2026-05-06 14:25 | 43.38766 | 39.77905 | 10561 ft | 350 kts | 329° |
| 2026-05-06 14:26 | 43.41022 | 39.76881 | 10456 ft | 333 kts | 358° |
| 2026-05-06 14:26 | 43.43197 | 39.77461 | 10365 ft | 319 kts | 27° |
| 2026-05-06 14:26 | 43.44810 | 39.79415 | 10280 ft | 308 kts | 57° |
| 2026-05-06 14:26 | 43.45676 | 39.82031 | 10238 ft | 295 kts | 71° |
| 2026-05-06 14:27 | 43.46004 | 39.84763 | 10168 ft | 285 kts | 89° |
| 2026-05-06 14:27 | 43.45699 | 39.87408 | 10062 ft | 278 kts | 108° |
| 2026-05-06 14:27 | 43.44806 | 39.89724 | 9927 ft | 272 kts | 127° |
| 2026-05-06 14:27 | 43.43440 | 39.91460 | 9754 ft | 266 kts | 147° |
| 2026-05-06 14:28 | 43.41761 | 39.92443 | 9572 ft | 261 kts | 168° |
| 2026-05-06 14:28 | 43.39966 | 39.92573 | 9362 ft | 257 kts | 188° |
| 2026-05-06 14:28 | 43.38287 | 39.91850 | 9140 ft | 252 kts | 210° |
| 2026-05-06 14:28 | 43.36929 | 39.90384 | 8911 ft | 247 kts | 231° |
| 2026-05-06 14:29 | 43.36064 | 39.88376 | 8668 ft | 243 kts | 253° |
| 2026-05-06 14:29 | 43.35805 | 39.86127 | 8427 ft | 238 kts | 275° |
| 2026-05-06 14:29 | 43.36175 | 39.83943 | 8176 ft | 234 kts | 296° |
| 2026-05-06 14:29 | 43.37106 | 39.82155 | 7933 ft | 230 kts | 319° |
| 2026-05-06 14:30 | 43.38453 | 39.81014 | 7683 ft | 228 kts | 341° |
| 2026-05-06 14:30 | 43.40009 | 39.80690 | 7433 ft | 227 kts | 4° |
| 2026-05-06 14:30 | 43.41525 | 39.81230 | 7186 ft | 227 kts | 26° |
| 2026-05-06 14:30 | 43.42767 | 39.82549 | 6945 ft | 228 kts | 49° |
| 2026-05-06 14:31 | 43.43542 | 39.84449 | 6706 ft | 230 kts | 71° |
| 2026-05-06 14:31 | 43.43719 | 39.86622 | 6459 ft | 231 kts | 95° |
| 2026-05-06 14:31 | 43.43267 | 39.88740 | 6199 ft | 232 kts | 118° |
| 2026-05-06 14:31 | 43.42258 | 39.90456 | 5946 ft | 232 kts | 141° |
| 2026-05-06 14:32 | 43.40850 | 39.91504 | 5684 ft | 231 kts | 164° |
| 2026-05-06 14:32 | 43.39262 | 39.91724 | 5429 ft | 229 kts | 187° |
| 2026-05-06 14:32 | 43.37760 | 39.91086 | 5187 ft | 226 kts | 211° |
| 2026-05-06 14:32 | 43.36576 | 39.89708 | 4946 ft | 223 kts | 235° |
| 2026-05-06 14:33 | 43.35900 | 39.87820 | 4686 ft | 220 kts | 258° |
| 2026-05-06 14:33 | 43.35840 | 39.85751 | 4428 ft | 218 kts | 281° |
| 2026-05-06 14:33 | 43.36398 | 39.83838 | 4174 ft | 216 kts | 305° |
| 2026-05-06 14:33 | 43.37471 | 39.82422 | 3916 ft | 215 kts | 329° |
| 2026-05-06 14:34 | 43.38869 | 39.81741 | 3662 ft | 215 kts | 354° |
| 2026-05-06 14:34 | 43.40349 | 39.81915 | 3406 ft | 214 kts | 18° |
| 2026-05-06 14:34 | 43.41636 | 39.82910 | 3145 ft | 214 kts | 43° |
| 2026-05-06 14:34 | 43.42504 | 39.84544 | 2892 ft | 213 kts | 67° |
| 2026-05-06 14:35 | 43.42798 | 39.86527 | 2636 ft | 212 kts | 92° |
| 2026-05-06 14:35 | 43.42464 | 39.88485 | 2382 ft | 212 kts | 117° |
| 2026-05-06 14:35 | 43.41575 | 39.90049 | 2190 ft | 213 kts | 142° |
| 2026-05-06 14:35 | 43.40240 | 39.90977 | 2158 ft | 215 kts | 167° |
| 2026-05-06 14:36 | 43.38759 | 39.91059 | 2133 ft | 214 kts | 191° |
| 2026-05-06 14:36 | 43.37411 | 39.90313 | 2121 ft | 211 kts | 216° |
| 2026-05-06 14:36 | 43.36413 | 39.88850 | 2129 ft | 208 kts | 241° |
| 2026-05-06 14:36 | 43.35974 | 39.87002 | 2131 ft | 207 kts | 266° |
| 2026-05-06 14:37 | 43.36149 | 39.85054 | 2128 ft | 207 kts | 291° |
| 2026-05-06 14:37 | 43.36911 | 39.83394 | 2133 ft | 207 kts | 316° |
| 2026-05-06 14:37 | 43.38120 | 39.82333 | 2131 ft | 208 kts | 341° |
| 2026-05-06 14:37 | 43.39543 | 39.82080 | 2131 ft | 209 kts | 6° |
| 2026-05-06 14:38 | 43.40921 | 39.82683 | 2135 ft | 209 kts | 31° |
| 2026-05-06 14:38 | 43.41986 | 39.84030 | 2135 ft | 210 kts | 56° |
| 2026-05-06 14:38 | 43.42543 | 39.85875 | 2135 ft | 211 kts | 81° |
| 2026-05-06 14:38 | 43.42486 | 39.87884 | 2130 ft | 212 kts | 106° |
| 2026-05-06 14:39 | 43.41824 | 39.89674 | 2131 ft | 212 kts | 130° |
| 2026-05-06 14:39 | 43.40679 | 39.90923 | 2133 ft | 212 kts | 155° |
| 2026-05-06 14:39 | 43.39254 | 39.91402 | 2133 ft | 212 kts | 180° |
| 2026-05-06 14:39 | 43.37819 | 39.91023 | 2130 ft | 212 kts | 205° |
| 2026-05-06 14:40 | 43.36627 | 39.89852 | 2130 ft | 212 kts | 229° |
| 2026-05-06 14:40 | 43.35903 | 39.88111 | 2132 ft | 212 kts | 254° |
| 2026-05-06 14:40 | 43.35774 | 39.86114 | 2133 ft | 212 kts | 278° |
| 2026-05-06 14:40 | 43.36267 | 39.84219 | 2130 ft | 212 kts | 303° |
| 2026-05-06 14:41 | 43.37289 | 39.82782 | 2130 ft | 212 kts | 327° |
| 2026-05-06 14:41 | 43.38661 | 39.82059 | 2130 ft | 213 kts | 352° |
| 2026-05-06 14:41 | 43.40125 | 39.82185 | 2129 ft | 213 kts | 17° |
| 2026-05-06 14:41 | 43.41419 | 39.83138 | 2127 ft | 213 kts | 41° |
| 2026-05-06 14:42 | 43.42312 | 39.84750 | 2127 ft | 213 kts | 66° |
| 2026-05-06 14:42 | 43.42635 | 39.86725 | 2129 ft | 213 kts | 91° |
| 2026-05-06 14:42 | 43.42332 | 39.88701 | 2129 ft | 212 kts | 115° |
| 2026-05-06 14:42 | 43.42095 | 39.89302 | 2129 ft | 212 kts | 124° |